Agnes — WDH9915 — position and weather

sailwx.info

Track history (hours):
 
Tides and Currents Weather Stations Pressure Air Temp Water Temp Dewpoint Dewpoint Depression Visibility Wind Speed Wind Dir Waves Ship Positions

Agnes

Owner: VINIK MARINE SERVICES, LLC, KEYPORT, NJ. More information available from US FCC via Universal Licensing System and Coast Guard Vessel Documentation Center.

Last reported at 2018-Feb-24 17:53 UTC. Time now 2018-Feb-24 23:31 UTC.
Position N 40°31' W 074°07'.

Length 18 m; draft 3 m.

Type: Tug. MMSI: 367672850.

Date/timePositionNaut miles runAvg speedWind from/ knotsBaromVisibWave heightAir tempDewpointWater temp
2018-Feb-24 17:53N 40°31' W 074°07'3 6.6
2018-Feb-24 17:29N 40°32' W 074°04'3 6.4
2018-Feb-24 17:00N 40°34' W 074°01'3 6.2
2018-Feb-24 16:30N 40°34' W 073°57'3 5.3
2018-Feb-24 16:00N 40°34' W 073°53'3 5.4
2018-Feb-24 15:30N 40°35' W 073°50'5 1.0
2018-Feb-24 11:01N 40°38' W 073°45'3 7.1
2018-Feb-24 10:37N 40°36' W 073°48'1 5.9
2018-Feb-24 10:30N 40°36' W 073°49'1 0.2
2018-Feb-24 06:59N 40°35' W 073°50'2 4.4
2018-Feb-24 06:30N 40°35' W 073°53'5 8.1
2018-Feb-24 05:56N 40°34' W 073°59'3 7.4
2018-Feb-24 05:30N 40°33' W 074°03'  
2018-Feb-21 17:13N 40°33' W 074°03'2 7.3
2018-Feb-21 17:00N 40°34' W 074°01'4 7.2
2018-Feb-21 16:30N 40°34' W 073°57'4 7.5
2018-Feb-21 15:58N 40°35' W 073°52'1 0.1
2018-Feb-21 09:02N 40°35' W 073°51'0 6.8
2018-Feb-21 08:58N 40°35' W 073°51'4 6.6
2018-Feb-21 08:25N 40°34' W 073°56'3 6.5
2018-Feb-21 07:58N 40°34' W 073°60'  
2018-Feb-18 14:24N 40°33' W 074°03'3 7.6
2018-Feb-18 14:00N 40°34' W 073°59'4 7.2
2018-Feb-18 13:29N 40°34' W 073°54'3 7.0
2018-Feb-18 13:00N 40°35' W 073°50'3 7.1
2018-Feb-18 12:30N 40°37' W 073°46'3 0.3
2018-Feb-18 00:35N 40°35' W 073°49'1 0.1
2018-Feb-17 18:06N 40°35' W 073°50'3 6.8
2018-Feb-17 17:42N 40°34' W 073°53'1 6.2
2018-Feb-17 17:30N 40°34' W 073°55'3 6.9
2018-Feb-17 17:00N 40°34' W 073°59'4 8.6
2018-Feb-17 16:30N 40°37' W 074°03'4 7.4
2018-Feb-17 16:00N 40°39' W 074°08'4 6.9
2018-Feb-17 15:28N 40°37' W 074°12'8 0.3
2018-Feb-16 15:32N 40°32' W 074°05'1 7.5
2018-Feb-16 15:28N 40°32' W 074°04'3 7.1
2018-Feb-16 15:00N 40°34' W 074°01'4 7.8
2018-Feb-16 14:26N 40°34' W 073°55'8 0.3
2018-Feb-15 11:56N 40°38' W 073°45'3 6.6
2018-Feb-15 11:30N 40°36' W 073°48'3 5.6
2018-Feb-15 10:55N 40°35' W 073°52'5 8.7
2018-Feb-15 10:23N 40°34' W 073°58'3 7.1
2018-Feb-15 10:00N 40°34' W 074°01'  
Track history (hours):
 
Tides and Currents Weather Stations Pressure Air Temp Water Temp Dewpoint Dewpoint Depression Visibility Wind Speed Wind Dir Waves Ship Positions

Agnes

Owner: VINIK MARINE SERVICES, LLC, KEYPORT, NJ. More information available from US FCC via Universal Licensing System and Coast Guard Vessel Documentation Center.

Last reported at 2018-Feb-24 17:53 UTC. Time now 2018-Feb-24 23:31 UTC.
Position N 40°31' W 074°07'.

Length 18 m; draft 3 m.

Type: Tug. MMSI: 367672850.

Date/timePositionNaut miles runAvg speedWind from/ knotsBaromVisibWave heightAir tempDewpointWater temp
2018-Feb-24 17:53N 40°31' W 074°07'3 6.6
2018-Feb-24 17:29N 40°32' W 074°04'3 6.4
2018-Feb-24 17:00N 40°34' W 074°01'3 6.2
2018-Feb-24 16:30N 40°34' W 073°57'3 5.3
2018-Feb-24 16:00N 40°34' W 073°53'3 5.4
2018-Feb-24 15:30N 40°35' W 073°50'5 1.0
2018-Feb-24 11:01N 40°38' W 073°45'3 7.1
2018-Feb-24 10:37N 40°36' W 073°48'1 5.9
2018-Feb-24 10:30N 40°36' W 073°49'1 0.2
2018-Feb-24 06:59N 40°35' W 073°50'2 4.4
2018-Feb-24 06:30N 40°35' W 073°53'5 8.1
2018-Feb-24 05:56N 40°34' W 073°59'3 7.4
2018-Feb-24 05:30N 40°33' W 074°03'  
2018-Feb-21 17:13N 40°33' W 074°03'2 7.3
2018-Feb-21 17:00N 40°34' W 074°01'4 7.2
2018-Feb-21 16:30N 40°34' W 073°57'4 7.5
2018-Feb-21 15:58N 40°35' W 073°52'1 0.1
2018-Feb-21 09:02N 40°35' W 073°51'0 6.8
2018-Feb-21 08:58N 40°35' W 073°51'4 6.6
2018-Feb-21 08:25N 40°34' W 073°56'3 6.5
2018-Feb-21 07:58N 40°34' W 073°60'  
2018-Feb-18 14:24N 40°33' W 074°03'3 7.6
2018-Feb-18 14:00N 40°34' W 073°59'4 7.2
2018-Feb-18 13:29N 40°34' W 073°54'3 7.0
2018-Feb-18 13:00N 40°35' W 073°50'3 7.1
2018-Feb-18 12:30N 40°37' W 073°46'3 0.3
2018-Feb-18 00:35N 40°35' W 073°49'1 0.1
2018-Feb-17 18:06N 40°35' W 073°50'3 6.8
2018-Feb-17 17:42N 40°34' W 073°53'1 6.2
2018-Feb-17 17:30N 40°34' W 073°55'3 6.9
2018-Feb-17 17:00N 40°34' W 073°59'4 8.6
2018-Feb-17 16:30N 40°37' W 074°03'4 7.4
2018-Feb-17 16:00N 40°39' W 074°08'4 6.9
2018-Feb-17 15:28N 40°37' W 074°12'8 0.3
2018-Feb-16 15:32N 40°32' W 074°05'1 7.5
2018-Feb-16 15:28N 40°32' W 074°04'3 7.1
2018-Feb-16 15:00N 40°34' W 074°01'4 7.8
2018-Feb-16 14:26N 40°34' W 073°55'8 0.3
2018-Feb-15 11:56N 40°38' W 073°45'3 6.6
2018-Feb-15 11:30N 40°36' W 073°48'3 5.6
2018-Feb-15 10:55N 40°35' W 073°52'5 8.7
2018-Feb-15 10:23N 40°34' W 073°58'3 7.1
2018-Feb-15 10:00N 40°34' W 074°01'  

Dump ship's entire track history